»·PEaware :: SWA278 KLAX-KLAS

SWA278 :: KLAX-KLAS

FLIGHT INFORMATION

Flight Status: Arrived
Operator:
Southwest Airlines
More flights by this operator :: More flights under this callsign
Pilot: Aaron A. (45456)
Aircraft: BOEING 737-600
(B736)
More flights by this aircraft type
Origin: KLAX Los Angeles Intl
United States
Destination: KLAS Harry Reid Intl
United States
More flights between these airports :: More routes between these airports
Route: ORCKA5 MISEN RNDRZ2
File this flight plan on PilotEdge
Remarks: RMK / SIMBRIEF
Altitude:
(Current/Filed)
35,000ft
Speed:
(Current/Filed)
453kts
Departed: 23-Oct-23 08:15 PM
Arrived: 23-Oct-23 09:22 PM
Distance/Time
Traveled:
205nm/1:07
Distance/Time
To Go:
Arrived

Flight Plot

Page will automatically refresh every two minutes.

Flight plan parsing failed; only flown route is shown


Map Options




Map Legend


Flown Route
Filed Route
Departure Airport
Arrival Airport
Navaid (VOR, NDB)
Fix

Horizontal Profiles

Position Reports

Time Latitude Longitude Heading Altitude Ground
Speed
23-Oct-23 19:58 33.946773 -118.406473 254 124ft 0kts
23-Oct-23 19:59 33.946773 -118.406473 254 124ft 0kts
23-Oct-23 20:00 33.946773 -118.406473 254 124ft 0kts
23-Oct-23 20:01 33.946773 -118.406473 254 124ft 0kts
23-Oct-23 20:02 33.946848 -118.405779 320 121ft 2kts
23-Oct-23 20:03 33.946784 -118.405732 336 122ft 0kts
23-Oct-23 20:04 33.946784 -118.405732 336 122ft 0kts
23-Oct-23 20:05 33.946784 -118.405732 336 122ft 0kts
23-Oct-23 20:06 33.946784 -118.405732 336 122ft 0kts
23-Oct-23 20:07 33.946784 -118.405732 336 122ft 0kts
23-Oct-23 20:08 33.946784 -118.405732 336 122ft 0kts
23-Oct-23 20:09 33.948196 -118.405785 332 120ft 8kts
23-Oct-23 20:10 33.948898 -118.403608 81 124ft 11kts
23-Oct-23 20:11 33.949301 -118.399863 81 124ft 10kts
23-Oct-23 20:12 33.949514 -118.399261 38 123ft 0kts
23-Oct-23 20:13 33.950454 -118.399846 253 121ft 5kts
23-Oct-23 20:14 33.947290 -118.428617 262 1260ft 141kts
23-Oct-23 20:15 33.939473 -118.485669 262 3838ft 201kts
23-Oct-23 20:16 33.927556 -118.562050 259 4478ft 274kts
23-Oct-23 20:17 33.916361 -118.653415 264 4588ft 264kts
23-Oct-23 20:18 33.906544 -118.743171 263 5007ft 270kts
23-Oct-23 20:19 33.847594 -118.771475 150 5024ft 281kts
23-Oct-23 20:20 33.833794 -118.690634 63 5033ft 277kts
23-Oct-23 20:21 33.865880 -118.608002 62 6785ft 244kts
23-Oct-23 20:22 33.893622 -118.536218 61 10078ft 272kts
23-Oct-23 20:23 33.926186 -118.447846 62 10042ft 292kts
23-Oct-23 20:24 33.971443 -118.364546 51 12881ft 307kts
23-Oct-23 20:25 34.021583 -118.276526 51 16259ft 327kts
23-Oct-23 20:26 34.074461 -118.183184 50 19553ft 344kts
23-Oct-23 20:27 34.129379 -118.085999 50 22745ft 357kts
23-Oct-23 20:28 34.186743 -117.984247 50 25420ft 376kts
23-Oct-23 20:29 34.247228 -117.876552 50 27847ft 396kts
23-Oct-23 20:30 34.310461 -117.763554 50 30106ft 415kts
23-Oct-23 20:31 34.376706 -117.647131 47 31839ft 419kts
23-Oct-23 20:32 34.446257 -117.533416 48 31849ft 417kts
23-Oct-23 20:33 34.514070 -117.419695 48 31857ft 416kts
23-Oct-23 20:34 34.583848 -117.302018 49 31160ft 432kts
23-Oct-23 20:35 34.652331 -117.184900 49 30825ft 410kts
23-Oct-23 20:37 34.715056 -117.077936 48 30813ft 371kts
23-Oct-23 20:38 34.775490 -116.976325 49 30848ft 377kts
23-Oct-23 20:39 34.836957 -116.871169 49 30856ft 385kts
23-Oct-23 20:40 34.899379 -116.763615 49 30854ft 392kts
23-Oct-23 20:41 34.962446 -116.654091 51 30843ft 399kts
23-Oct-23 20:42 35.025696 -116.541420 51 30810ft 406kts
23-Oct-23 20:43 35.092069 -116.424455 50 29009ft 458kts
23-Oct-23 20:44 35.172626 -116.298870 45 27648ft 479kts
23-Oct-23 20:45 35.254482 -116.171698 43 25309ft 491kts
23-Oct-23 20:46 35.356218 -116.054724 38 20141ft 483kts
23-Oct-23 20:47 35.445163 -115.945115 47 18769ft 423kts
23-Oct-23 20:48 35.519705 -115.840120 46 17096ft 399kts
23-Oct-23 20:49 35.591732 -115.740567 47 15136ft 383kts
23-Oct-23 20:50 35.662225 -115.645407 47 13228ft 369kts
23-Oct-23 20:51 35.728312 -115.555978 48 12335ft 324kts
23-Oct-23 20:52 35.792598 -115.496094 20 12338ft 267kts
23-Oct-23 20:53 35.863498 -115.458658 25 12387ft 311kts
23-Oct-23 20:54 35.944242 -115.405278 29 12295ft 332kts
23-Oct-23 20:55 36.011464 -115.327360 79 10922ft 327kts
23-Oct-23 20:56 36.009368 -115.223453 99 10636ft 278kts
23-Oct-23 20:57 36.003892 -115.135160 99 9442ft 252kts
23-Oct-23 20:58 36.000296 -115.052335 94 8876ft 240kts
23-Oct-23 20:59 35.998845 -114.970041 87 7919ft 233kts
23-Oct-23 21:00 36.002061 -114.891752 56 6553ft 229kts
23-Oct-23 21:01 36.054560 -114.903886 324 4836ft 228kts
23-Oct-23 21:02 36.074105 -114.971508 269 3624ft 208kts
23-Oct-23 21:03 36.072479 -115.031876 269 3685ft 158kts
23-Oct-23 21:03 36.072782 -115.071736 263 3150ft 120kts
23-Oct-23 21:04 36.073679 -115.114016 265 2421ft 120kts
23-Oct-23 21:06 36.064907 -115.158478 233 2481ft 119kts
23-Oct-23 21:07 36.037308 -115.181144 180 3366ft 121kts
23-Oct-23 21:08 36.000378 -115.193949 208 4133ft 154kts
23-Oct-23 21:08 35.963481 -115.212600 206 4886ft 193kts
23-Oct-23 21:09 35.911533 -115.235806 196 6599ft 198kts
23-Oct-23 21:10 35.850076 -115.243967 149 6877ft 278kts
23-Oct-23 21:11 35.841815 -115.143314 70 6862ft 358kts
23-Oct-23 21:13 35.880337 -115.016703 71 6786ft 296kts
23-Oct-23 21:14 35.902974 -114.929973 70 6810ft 243kts
23-Oct-23 21:14 35.926201 -114.869461 30 6829ft 238kts
23-Oct-23 21:15 35.991055 -114.851528 10 6558ft 240kts
23-Oct-23 21:16 36.054480 -114.855054 313 5859ft 243kts
23-Oct-23 21:17 36.077826 -114.929403 256 5130ft 229kts
23-Oct-23 21:19 36.073819 -115.009998 271 3886ft 174kts
23-Oct-23 21:19 36.073602 -115.053791 265 3149ft 151kts
23-Oct-23 21:20 36.073609 -115.103375 270 2538ft 141kts
23-Oct-23 21:22 36.073649 -115.146495 269 2121ft 33kts
23-Oct-23 21:22 36.074925 -115.150883 308 2137ft 7kts
23-Oct-23 21:23 36.076396 -115.152374 294 2146ft 2kts

Navigation Log

Ident Type
Flight plan parsing failed, navigation log unavailable